Time;durP1;ratioP1;P1;durP2;ratioP2;P2;SDS_P1;SDS_P2;PMS_P1;PMS_P2;Temp;Humidity;BMP_temperature;BMP_pressure;BME280_temperature;BME280_humidity;BME280_pressure;Samples;Min_cycle;Max_cycle;Signal;HPM_P1;HPM_P2
2021/05/07 00:01:30;;;;;;;1.00;0.90;;;8.40;99.90;;;;;;5071033;28;20231;-79
2021/05/07 00:03:57;;;;;;;1.38;1.27;;;8.40;99.90;;;;;;5089757;28;20195;-79
2021/05/07 00:06:23;;;;;;;1.10;0.88;;;8.40;99.90;;;;;;5074720;28;20723;-79
2021/05/07 00:08:50;;;;;;;1.52;1.50;;;8.50;99.90;;;;;;5070322;28;20269;-79
2021/05/07 00:11:18;;;;;;;1.85;1.17;;;8.40;99.90;;;;;;5080541;28;20251;-79
2021/05/07 00:13:46;;;;;;;1.10;1.10;;;8.40;99.90;;;;;;5086226;28;20192;-78
2021/05/07 00:16:13;;;;;;;1.50;1.42;;;8.50;99.90;;;;;;5073743;28;20249;-78
2021/05/07 00:18:40;;;;;;;1.60;1.50;;;8.60;99.90;;;;;;5071324;28;20198;-79
2021/05/07 00:21:07;;;;;;;1.13;0.85;;;8.50;99.90;;;;;;5074555;28;20286;-78
2021/05/07 00:23:33;;;;;;;1.00;1.00;;;8.40;99.90;;;;;;5070393;28;20262;-79
2021/05/07 00:26:00;;;;;;;1.40;1.30;;;8.40;99.90;;;;;;5078044;28;21069;-78
2021/05/07 00:28:28;;;;;;;1.13;1.13;;;8.40;99.90;;;;;;5091011;28;20222;-79
2021/05/07 00:30:54;;;;;;;1.25;1.23;;;8.50;99.90;;;;;;5077189;28;20223;-78
2021/05/07 00:33:20;;;;;;;1.52;1.42;;;8.60;99.90;;;;;;5077345;28;20222;-79
2021/05/07 00:35:47;;;;;;;1.40;1.30;;;8.60;99.90;;;;;;5078407;28;20191;-79
2021/05/07 00:38:14;;;;;;;1.55;1.45;;;8.60;99.90;;;;;;5070089;28;20229;-79
2021/05/07 00:40:41;;;;;;;0.85;0.85;;;8.70;99.90;;;;;;5072660;28;20345;-79
2021/05/07 00:43:07;;;;;;;2.05;0.98;;;8.50;99.90;;;;;;5088994;28;20191;-78
2021/05/07 00:45:35;;;;;;;0.77;0.77;;;8.50;99.90;;;;;;5082204;28;20197;-78
2021/05/07 00:48:04;;;;;;;1.17;1.05;;;8.30;99.90;;;;;;5090561;28;20301;-79
2021/05/07 00:50:32;;;;;;;2.08;1.00;;;8.50;99.90;;;;;;5077923;28;20197;-79
2021/05/07 00:52:59;;;;;;;1.05;1.00;;;8.40;99.90;;;;;;5090271;28;20199;-79
2021/05/07 00:55:26;;;;;;;1.65;1.55;;;8.40;99.90;;;;;;5076820;28;20605;-79
2021/05/07 00:57:52;;;;;;;1.65;1.50;;;8.40;99.90;;;;;;5070204;28;20234;-79
2021/05/07 01:00:21;;;;;;;1.25;1.15;;;8.40;99.90;;;;;;5082421;28;20226;-79
2021/05/07 01:02:49;;;;;;;1.15;1.05;;;8.40;99.90;;;;;;5082418;28;20222;-79
2021/05/07 01:05:18;;;;;;;1.50;1.20;;;8.40;99.90;;;;;;5074413;28;20742;-78
2021/05/07 01:07:45;;;;;;;2.15;1.73;;;8.40;99.90;;;;;;5052806;28;20227;-79
2021/05/07 01:10:16;;;;;;;1.52;1.38;;;8.50;99.90;;;;;;5088834;28;20199;-79
2021/05/07 01:12:45;;;;;;;1.52;1.42;;;8.40;99.90;;;;;;5076527;28;20191;-79
2021/05/07 01:15:14;;;;;;;1.10;1.00;;;8.50;99.90;;;;;;5069932;28;20199;-79
2021/05/07 01:17:43;;;;;;;1.00;1.00;;;8.40;99.90;;;;;;5062859;28;20199;-79
2021/05/07 01:20:17;;;;;;;0.98;0.98;;;8.40;99.90;;;;;;5064310;28;20234;-78
2021/05/07 01:22:47;;;;;;;0.70;0.70;;;8.40;99.90;;;;;;5075734;28;20194;-78
2021/05/07 01:25:18;;;;;;;1.20;1.10;;;8.30;99.90;;;;;;5070026;28;21697;-78
2021/05/07 01:27:48;;;;;;;0.95;0.85;;;8.30;99.90;;;;;;5069633;28;20792;-79
2021/05/07 01:30:18;;;;;;;1.70;1.00;;;8.20;99.90;;;;;;5072376;28;20631;-79
2021/05/07 01:32:47;;;;;;;1.17;1.08;;;8.20;99.90;;;;;;5078204;28;20198;-78
2021/05/07 01:35:18;;;;;;;1.00;1.00;;;8.10;99.90;;;;;;5088350;28;20226;-79
2021/05/07 01:37:47;;;;;;;1.27;1.20;;;8.30;99.90;;;;;;5076465;28;20191;-79
2021/05/07 01:40:18;;;;;;;0.88;0.88;;;8.40;99.90;;;;;;5070139;28;20201;-79
2021/05/07 01:42:47;;;;;;;0.70;0.70;;;8.30;99.90;;;;;;5068850;28;20198;-79
2021/05/07 01:45:15;;;;;;;0.80;0.80;;;8.40;99.90;;;;;;5089865;28;20186;-79
2021/05/07 01:47:43;;;;;;;0.80;0.60;;;8.20;99.90;;;;;;5090044;28;20230;-79
2021/05/07 01:50:13;;;;;;;0.50;0.50;;;8.20;99.90;;;;;;5075627;28;20243;-79
2021/05/07 01:52:41;;;;;;;0.63;0.63;;;8.00;99.90;;;;;;5069344;28;20734;-79
2021/05/07 01:55:11;;;;;;;0.65;0.65;;;7.90;99.90;;;;;;5068243;28;20669;-78
2021/05/07 01:57:40;;;;;;;1.13;1.10;;;8.00;99.90;;;;;;5057087;28;20194;-79
2021/05/07 02:00:10;;;;;;;0.80;0.75;;;8.10;99.90;;;;;;5072758;28;20199;-79
2021/05/07 02:02:38;;;;;;;0.82;0.70;;;8.10;99.90;;;;;;5087009;28;20211;-79
2021/05/07 02:05:06;;;;;;;0.70;0.70;;;8.20;99.90;;;;;;5073291;28;20206;-80
2021/05/07 02:07:33;;;;;;;0.77;0.77;;;8.20;99.90;;;;;;5091563;28;20367;-79
2021/05/07 02:10:06;;;;;;;1.20;1.10;;;8.30;99.90;;;;;;5092758;28;20207;-79
2021/05/07 02:12:33;;;;;;;0.95;0.85;;;7.90;99.90;;;;;;5089928;28;20194;-79
2021/05/07 02:15:06;;;;;;;1.05;0.95;;;8.00;99.90;;;;;;5077764;28;20253;-80
2021/05/07 02:17:34;;;;;;;1.00;1.00;;;8.00;99.90;;;;;;5093944;28;20212;-79
2021/05/07 02:20:01;;;;;;;0.98;0.95;;;8.10;99.90;;;;;;5079178;28;20203;-79
2021/05/07 02:22:29;;;;;;;1.10;1.00;;;8.10;99.90;;;;;;5092721;28;20228;-80
2021/05/07 02:24:55;;;;;;;1.30;1.20;;;8.10;99.90;;;;;;5077591;28;20531;-79
2021/05/07 02:27:22;;;;;;;2.78;2.58;;;8.10;99.90;;;;;;5073761;28;20528;-79
2021/05/07 02:29:50;;;;;;;3.05;1.40;;;8.20;99.90;;;;;;5072511;28;20195;-79
2021/05/07 02:32:16;;;;;;;2.40;2.20;;;8.30;99.90;;;;;;5074001;28;20264;-79
2021/05/07 02:34:43;;;;;;;2.10;2.00;;;8.30;99.90;;;;;;5074535;28;20195;-79
2021/05/07 02:37:10;;;;;;;0.85;0.85;;;8.30;99.90;;;;;;5092726;28;20849;-79
2021/05/07 02:39:36;;;;;;;1.48;1.10;;;8.10;99.90;;;;;;5076065;28;20272;-80
2021/05/07 02:42:04;;;;;;;0.65;0.65;;;8.20;99.90;;;;;;5072765;28;20203;-79
2021/05/07 02:44:31;;;;;;;1.95;1.40;;;8.20;99.90;;;;;;5091703;28;20198;-79
2021/05/07 02:47:03;;;;;;;1.63;1.20;;;8.30;99.90;;;;;;5074373;28;20281;-78
2021/05/07 02:49:29;;;;;;;1.00;1.00;;;8.20;99.90;;;;;;5072034;28;20218;-78
2021/05/07 02:51:56;;;;;;;0.80;0.80;;;8.30;99.90;;;;;;5091911;28;20720;-80
2021/05/07 02:54:22;;;;;;;1.08;1.00;;;8.40;99.90;;;;;;5091441;28;20203;-79
2021/05/07 02:56:49;;;;;;;1.25;1.15;;;8.30;99.90;;;;;;5091811;28;20698;-79
2021/05/07 02:59:16;;;;;;;1.25;0.98;;;8.30;99.90;;;;;;5092024;28;20221;-79
2021/05/07 03:01:43;;;;;;;0.93;0.93;;;8.30;99.90;;;;;;5073564;28;20203;-78
2021/05/07 03:04:10;;;;;;;0.70;0.70;;;8.40;99.90;;;;;;5090166;28;20618;-78
2021/05/07 03:06:37;;;;;;;0.75;0.75;;;8.40;99.90;;;;;;5090795;28;20309;-79
2021/05/07 03:09:04;;;;;;;2.42;1.20;;;8.00;99.90;;;;;;5090886;28;20191;-79
2021/05/07 03:11:31;;;;;;;1.05;1.02;;;8.00;99.90;;;;;;5079407;28;20229;-79
2021/05/07 03:13:58;;;;;;;1.25;1.15;;;7.90;99.90;;;;;;5091609;28;20290;-79
2021/05/07 03:16:25;;;;;;;1.00;1.00;;;7.80;99.90;;;;;;5088188;28;20293;-80
2021/05/07 03:18:52;;;;;;;1.83;1.73;;;7.70;99.90;;;;;;5079278;28;20205;-80
2021/05/07 03:21:19;;;;;;;1.13;1.13;;;7.80;99.90;;;;;;5083535;28;20672;-80
2021/05/07 03:23:45;;;;;;;1.10;1.00;;;7.60;99.90;;;;;;5071702;28;20332;-80
2021/05/07 03:26:12;;;;;;;1.63;1.52;;;7.60;99.90;;;;;;5084123;28;20215;-79
2021/05/07 03:28:39;;;;;;;2.35;1.83;;;7.60;99.90;;;;;;5080523;28;20226;-79
2021/05/07 03:31:06;;;;;;;2.45;1.77;;;7.60;99.90;;;;;;5084389;28;20270;-79
2021/05/07 03:33:32;;;;;;;1.70;1.60;;;7.60;99.90;;;;;;5076417;28;20202;-80
2021/05/07 03:35:59;;;;;;;0.77;0.77;;;7.50;99.90;;;;;;5072898;28;20223;-79
2021/05/07 03:38:28;;;;;;;3.08;1.63;;;7.40;99.90;;;;;;5073096;28;20286;-80
2021/05/07 03:40:55;;;;;;;1.75;1.65;;;7.40;99.90;;;;;;5091922;28;20536;-79
2021/05/07 03:43:21;;;;;;;2.45;1.70;;;7.20;99.90;;;;;;5089926;28;20195;-79
2021/05/07 03:45:48;;;;;;;4.57;1.92;;;7.20;99.90;;;;;;5087206;28;20191;-79
2021/05/07 03:48:15;;;;;;;2.45;1.40;;;7.00;99.90;;;;;;5072048;28;20305;-79
2021/05/07 03:50:42;;;;;;;2.05;1.40;;;7.00;99.90;;;;;;5084943;28;20194;-79
2021/05/07 03:53:11;;;;;;;1.75;1.65;;;6.90;99.90;;;;;;5079221;28;20199;-79
2021/05/07 03:55:38;;;;;;;1.38;1.27;;;6.90;99.90;;;;;;5079744;28;20207;-80
2021/05/07 03:58:04;;;;;;;1.92;1.77;;;6.90;99.90;;;;;;5091021;28;20214;-79
2021/05/07 04:00:30;;;;;;;2.40;1.40;;;6.90;99.90;;;;;;5088379;28;20191;-79
2021/05/07 04:02:57;;;;;;;2.20;1.90;;;6.80;99.90;;;;;;5087265;28;20249;-79
2021/05/07 04:05:23;;;;;;;1.67;1.58;;;6.60;99.90;;;;;;5070708;28;20270;-79
2021/05/07 04:08:03;;;;;;;1.80;1.70;;;6.70;99.90;;;;;;5083512;28;20760;-79
2021/05/07 04:10:35;;;;;;;1.20;1.10;;;6.60;99.90;;;;;;5068860;28;20555;-79
2021/05/07 04:15:45;;;;;;;1.17;1.08;;;6.70;99.90;;;;;;5069002;28;20284;-79
2021/05/07 04:18:12;;;;;;;1.45;1.35;;;6.60;99.90;;;;;;5052993;28;20681;-79
2021/05/07 04:20:39;;;;;;;1.45;1.35;;;6.50;99.90;;;;;;5059591;28;20197;-78
2021/05/07 04:23:06;;;;;;;0.90;0.90;;;6.40;99.90;;;;;;5074027;28;20277;-80
2021/05/07 04:25:33;;;;;;;1.00;1.00;;;6.40;99.90;;;;;;5088526;28;20240;-80
2021/05/07 04:27:59;;;;;;;0.90;0.90;;;6.40;99.90;;;;;;5085368;28;20211;-79
2021/05/07 04:30:25;;;;;;;1.67;1.25;;;6.40;99.90;;;;;;5088191;28;20202;-80
2021/05/07 04:32:52;;;;;;;0.80;0.80;;;6.40;99.90;;;;;;5086925;28;20648;-79
2021/05/07 04:35:18;;;;;;;1.65;1.55;;;6.40;99.90;;;;;;5083124;28;20257;-79
2021/05/07 04:37:45;;;;;;;2.85;1.40;;;6.40;99.90;;;;;;5069876;28;20214;-81
2021/05/07 04:40:13;;;;;;;4.57;1.85;;;6.40;99.90;;;;;;5082571;28;20550;-80
2021/05/07 04:42:40;;;;;;;3.67;3.30;;;6.30;99.90;;;;;;5090683;28;21088;-79
2021/05/07 04:45:08;;;;;;;3.45;2.05;;;6.30;99.90;;;;;;5090137;28;20255;-80
2021/05/07 04:47:34;;;;;;;2.50;1.83;;;6.40;99.90;;;;;;5071305;28;20223;-79
2021/05/07 04:50:01;;;;;;;1.92;1.20;;;6.40;99.90;;;;;;5079473;28;20226;-79
2021/05/07 04:52:27;;;;;;;2.28;1.25;;;6.30;99.90;;;;;;5075602;28;20203;-79
2021/05/07 04:54:53;;;;;;;1.25;1.02;;;6.30;99.90;;;;;;5082938;28;20262;-79
2021/05/07 04:57:20;;;;;;;1.90;1.20;;;6.40;99.90;;;;;;5070159;28;20195;-80
2021/05/07 04:59:47;;;;;;;1.10;1.00;;;6.40;99.90;;;;;;5069707;28;20234;-80
2021/05/07 05:02:13;;;;;;;0.95;0.95;;;6.20;99.90;;;;;;5071756;28;20218;-80
2021/05/07 05:04:40;;;;;;;0.95;0.95;;;6.30;99.90;;;;;;5081270;28;20223;-78
2021/05/07 05:07:07;;;;;;;0.90;0.90;;;6.40;99.90;;;;;;5070855;28;20266;-80
2021/05/07 05:09:34;;;;;;;0.88;0.88;;;6.30;99.90;;;;;;5070665;28;20660;-80
2021/05/07 05:12:00;;;;;;;0.75;0.75;;;6.30;99.90;;;;;;5069607;28;20231;-80
2021/05/07 05:14:27;;;;;;;1.30;1.02;;;6.40;99.90;;;;;;5083172;28;20244;-80
2021/05/07 05:16:54;;;;;;;0.85;0.85;;;6.20;99.90;;;;;;5088055;28;20548;-80
2021/05/07 05:19:20;;;;;;;1.17;1.08;;;6.30;99.90;;;;;;5085923;28;20202;-80
2021/05/07 05:21:47;;;;;;;1.00;0.95;;;6.30;99.90;;;;;;5089139;28;20207;-79
2021/05/07 05:24:13;;;;;;;1.58;1.48;;;6.20;99.90;;;;;;5090082;28;20600;-80
2021/05/07 05:26:40;;;;;;;1.33;1.10;;;6.10;99.90;;;;;;5089981;28;20268;-80
2021/05/07 05:29:06;;;;;;;1.95;1.75;;;6.00;99.90;;;;;;5074708;28;20210;-80
2021/05/07 05:31:32;;;;;;;1.38;1.27;;;6.30;99.90;;;;;;5071125;28;20179;-80
2021/05/07 05:34:00;;;;;;;1.27;1.17;;;6.30;99.90;;;;;;5073412;28;20224;-80
2021/05/07 05:36:26;;;;;;;1.90;1.70;;;6.30;99.90;;;;;;5074276;28;20227;-79
2021/05/07 05:38:52;;;;;;;2.45;1.58;;;6.50;99.90;;;;;;5073706;28;20211;-79
2021/05/07 05:41:19;;;;;;;2.10;1.90;;;6.50;99.90;;;;;;5073963;28;20207;-80
2021/05/07 05:43:48;;;;;;;2.58;1.85;;;6.50;99.90;;;;;;5073657;28;20691;-80
2021/05/07 05:46:14;;;;;;;2.60;2.40;;;6.50;99.90;;;;;;5073606;28;20203;-80
2021/05/07 05:48:41;;;;;;;3.10;2.65;;;6.40;99.90;;;;;;5072776;28;20206;-80
2021/05/07 05:51:08;;;;;;;2.50;2.30;;;6.30;99.90;;;;;;5073787;28;20203;-80
2021/05/07 05:53:35;;;;;;;3.33;2.50;;;6.50;99.90;;;;;;5073486;28;20687;-79
2021/05/07 05:56:03;;;;;;;3.30;2.80;;;6.60;99.90;;;;;;5073605;28;20269;-79
2021/05/07 05:58:31;;;;;;;4.22;2.55;;;6.50;99.90;;;;;;5072927;28;20286;-80
2021/05/07 06:00:59;;;;;;;2.60;2.40;;;6.40;99.90;;;;;;5072807;28;20203;-82
2021/05/07 06:03:28;;;;;;;3.80;2.50;;;6.50;99.90;;;;;;5073143;28;20207;-80
2021/05/07 06:05:54;;;;;;;3.35;2.75;;;6.60;99.90;;;;;;5073602;28;20240;-80
2021/05/07 06:08:22;;;;;;;2.70;2.33;;;6.70;99.90;;;;;;5073482;28;20223;-81
2021/05/07 06:10:49;;;;;;;3.80;2.63;;;6.70;99.90;;;;;;5073067;28;20210;-80
2021/05/07 06:13:15;;;;;;;4.88;3.72;;;6.70;99.90;;;;;;5074257;28;20279;-80
2021/05/07 06:15:42;;;;;;;3.67;3.28;;;6.80;99.90;;;;;;5090015;28;20198;-80
2021/05/07 06:18:08;;;;;;;3.67;3.28;;;6.80;99.90;;;;;;5076916;28;20187;-80
2021/05/07 06:20:35;;;;;;;4.15;3.40;;;6.80;99.90;;;;;;5083006;28;20215;-81
2021/05/07 06:23:01;;;;;;;4.43;4.03;;;6.80;99.90;;;;;;5073817;28;20199;-80
2021/05/07 06:25:29;;;;;;;4.28;3.85;;;6.80;99.90;;;;;;5080857;28;20198;-81
2021/05/07 06:27:56;;;;;;;6.47;4.20;;;6.90;99.90;;;;;;5081801;28;20207;-80
2021/05/07 06:30:23;;;;;;;4.60;3.50;;;6.90;99.90;;;;;;5087851;28;20183;-80
2021/05/07 06:32:49;;;;;;;3.70;3.25;;;7.00;99.90;;;;;;5076536;28;20191;-80
2021/05/07 06:35:16;;;;;;;4.35;3.80;;;7.10;99.90;;;;;;5093406;28;20263;-81
2021/05/07 06:37:42;;;;;;;4.78;3.95;;;7.20;99.90;;;;;;5093241;28;20199;-80
2021/05/07 06:40:10;;;;;;;6.13;4.30;;;7.40;99.90;;;;;;5081956;28;20262;-81
2021/05/07 06:42:38;;;;;;;5.60;4.10;;;7.10;99.90;;;;;;5074234;28;20192;-79
2021/05/07 06:45:06;;;;;;;5.13;4.55;;;7.20;99.90;;;;;;5073452;28;20195;-80
2021/05/07 06:47:33;;;;;;;8.10;5.05;;;7.30;99.90;;;;;;5089441;28;20215;-80
2021/05/07 06:50:03;;;;;;;6.13;5.30;;;7.20;99.90;;;;;;5078784;28;20191;-80
2021/05/07 06:52:33;;;;;;;5.70;5.10;;;7.20;99.90;;;;;;5086397;28;20202;-81
2021/05/07 06:55:02;;;;;;;5.82;5.35;;;7.20;99.90;;;;;;5075737;28;20199;-80
2021/05/07 06:57:32;;;;;;;5.47;4.38;;;7.30;99.90;;;;;;5086909;28;20551;-81
2021/05/07 06:59:59;;;;;;;6.10;5.50;;;7.20;99.90;;;;;;5075881;28;20198;-81
2021/05/07 07:02:26;;;;;;;6.03;5.43;;;7.00;99.90;;;;;;5087188;28;20203;-81
2021/05/07 07:04:52;;;;;;;6.25;5.47;;;7.20;99.90;;;;;;5082102;28;20560;-81
2021/05/07 07:07:19;;;;;;;6.25;5.65;;;7.40;99.90;;;;;;5079656;28;20226;-80
2021/05/07 07:09:45;;;;;;;7.50;6.72;;;7.30;99.90;;;;;;5088689;28;20191;-80
2021/05/07 07:12:13;;;;;;;7.45;6.07;;;7.30;99.90;;;;;;5072884;28;20208;-80
2021/05/07 07:14:40;;;;;;;7.45;6.70;;;7.30;99.90;;;;;;5077130;28;20201;-80
2021/05/07 07:17:07;;;;;;;9.57;7.13;;;7.30;99.90;;;;;;5085763;28;20191;-80
2021/05/07 07:19:35;;;;;;;8.13;6.65;;;7.40;99.90;;;;;;5084049;28;20191;-80
2021/05/07 07:22:02;;;;;;;8.07;7.28;;;7.30;99.90;;;;;;5076369;28;20196;-80
2021/05/07 07:24:28;;;;;;;8.60;6.70;;;7.20;99.90;;;;;;5088314;28;20196;-80
2021/05/07 07:26:55;;;;;;;7.30;6.70;;;7.10;99.90;;;;;;5079302;28;20345;-80
2021/05/07 07:29:21;;;;;;;8.10;6.43;;;7.00;99.90;;;;;;5075436;28;20191;-80
2021/05/07 07:31:51;;;;;;;7.65;6.90;;;7.00;99.90;;;;;;5072249;28;20217;-80
2021/05/07 07:34:19;;;;;;;6.72;6.03;;;7.00;99.90;;;;;;5071938;28;20300;-80
2021/05/07 07:36:46;;;;;;;7.72;6.93;;;7.20;99.90;;;;;;5071819;28;20195;-80
2021/05/07 07:39:13;;;;;;;8.95;7.78;;;7.20;99.90;;;;;;5071062;28;20207;-80
2021/05/07 07:41:39;;;;;;;8.15;7.35;;;7.20;99.90;;;;;;5071920;28;20230;-80
2021/05/07 07:44:07;;;;;;;8.43;6.85;;;7.50;99.90;;;;;;5070692;28;20223;-80
2021/05/07 07:46:34;;;;;;;8.65;6.95;;;7.40;99.90;;;;;;5070641;28;20757;-80
2021/05/07 07:49:00;;;;;;;7.63;6.43;;;7.00;99.90;;;;;;5071081;28;20257;-80
2021/05/07 07:51:29;;;;;;;10.40;7.18;;;7.10;99.90;;;;;;5071200;28;20211;-80
2021/05/07 07:53:58;;;;;;;6.93;6.32;;;7.20;99.90;;;;;;5071247;28;20198;-80
2021/05/07 07:56:25;;;;;;;7.53;6.72;;;7.20;99.90;;;;;;5071485;28;20195;-80
2021/05/07 07:58:51;;;;;;;7.68;6.60;;;7.30;99.90;;;;;;5070732;28;20203;-80
2021/05/07 08:01:18;;;;;;;8.07;7.00;;;7.40;99.90;;;;;;5071378;28;20204;-80
2021/05/07 08:03:45;;;;;;;8.65;7.75;;;7.40;99.90;;;;;;5071218;28;20203;-80
2021/05/07 08:06:12;;;;;;;7.55;6.85;;;7.30;99.90;;;;;;5070871;28;20569;-80
2021/05/07 08:08:39;;;;;;;7.78;6.70;;;7.70;99.90;;;;;;5071217;28;20203;-80
2021/05/07 08:11:05;;;;;;;6.57;5.97;;;8.00;99.90;;;;;;5071291;28;20675;-80
2021/05/07 08:13:32;;;;;;;6.85;6.15;;;8.00;99.90;;;;;;5071334;28;20187;-80
2021/05/07 08:15:58;;;;;;;9.18;7.00;;;8.00;99.90;;;;;;5071117;28;20203;-80
2021/05/07 08:18:25;;;;;;;7.53;6.85;;;8.00;99.40;;;;;;5071370;28;20195;-80
2021/05/07 08:20:53;;;;;;;7.65;5.90;;;8.10;99.30;;;;;;5069231;28;20280;-80
2021/05/07 08:23:20;;;;;;;7.05;5.70;;;7.90;98.10;;;;;;5071578;28;20202;-80
2021/05/07 08:25:49;;;;;;;7.20;5.30;;;8.00;98.20;;;;;;5071072;28;20247;-80
2021/05/07 08:28:16;;;;;;;6.63;6.03;;;8.20;97.70;;;;;;5070710;28;20227;-80
2021/05/07 08:30:44;;;;;;;7.65;6.40;;;8.20;97.40;;;;;;5070023;28;20268;-80
2021/05/07 08:33:11;;;;;;;5.53;5.13;;;8.20;97.50;;;;;;5070340;28;20207;-80
2021/05/07 08:35:39;;;;;;;6.63;5.82;;;8.20;96.80;;;;;;5070896;28;20264;-80
2021/05/07 08:38:08;;;;;;;6.55;5.75;;;8.20;96.90;;;;;;5070859;28;20665;-80
2021/05/07 08:40:36;;;;;;;6.45;5.95;;;8.30;96.60;;;;;;5070024;28;20194;-80
2021/05/07 08:43:08;;;;;;;6.10;5.50;;;8.30;97.10;;;;;;5070296;28;20196;-80
2021/05/07 08:45:36;;;;;;;6.30;5.72;;;8.30;95.30;;;;;;5070258;28;20195;-80
2021/05/07 08:48:05;;;;;;;6.60;5.80;;;8.40;95.70;;;;;;5070735;28;20231;-80
2021/05/07 08:50:33;;;;;;;7.32;5.90;;;8.70;95.60;;;;;;5069776;28;20198;-80
2021/05/07 08:53:01;;;;;;;5.45;4.95;;;8.80;94.00;;;;;;5079189;28;20701;-80
2021/05/07 08:55:29;;;;;;;4.82;4.43;;;8.80;94.20;;;;;;5068468;28;20636;-80
2021/05/07 08:57:57;;;;;;;5.30;4.85;;;8.90;94.80;;;;;;5076537;28;20690;-80
2021/05/07 09:00:26;;;;;;;6.40;5.80;;;8.50;93.30;;;;;;5082013;28;20207;-80
2021/05/07 09:03:04;;;;;;;5.72;5.22;;;8.70;94.30;;;;;;5070162;28;20211;-80
2021/05/07 09:05:37;;;;;;;5.13;4.70;;;8.80;93.70;;;;;;5078740;28;20256;-81
2021/05/07 09:08:09;;;;;;;5.05;4.65;;;8.90;92.50;;;;;;5090270;28;20234;-81
2021/05/07 09:10:38;;;;;;;5.32;4.60;;;8.80;92.10;;;;;;5072796;28;20222;-80
2021/05/07 09:13:08;;;;;;;4.80;4.40;;;8.90;91.30;;;;;;5080108;28;20213;-80
2021/05/07 09:15:41;;;;;;;5.22;4.82;;;9.00;90.10;;;;;;5072827;28;20188;-80
2021/05/07 09:18:13;;;;;;;5.32;4.65;;;9.10;91.20;;;;;;5088337;28;20242;-78
2021/05/07 09:20:46;;;;;;;6.25;5.35;;;9.20;90.30;;;;;;5079914;28;20244;-78
2021/05/07 09:23:15;;;;;;;4.63;4.22;;;9.40;89.40;;;;;;5087758;28;20527;-78
2021/05/07 09:25:42;;;;;;;5.28;4.55;;;9.40;85.20;;;;;;5071401;28;20192;-78
2021/05/07 09:28:11;;;;;;;4.50;4.20;;;9.70;86.90;;;;;;5077230;28;20294;-78
2021/05/07 09:30:39;;;;;;;4.73;4.30;;;9.80;83.30;;;;;;5079549;28;20617;-79
2021/05/07 09:33:07;;;;;;;4.50;4.10;;;10.00;82.10;;;;;;5077665;28;20614;-78
2021/05/07 09:35:34;;;;;;;7.13;4.57;;;9.90;82.40;;;;;;5071263;28;20640;-79
2021/05/07 09:38:03;;;;;;;5.50;4.70;;;9.50;82.70;;;;;;5069670;28;20202;-78
2021/05/07 09:40:32;;;;;;;4.75;4.30;;;9.40;83.50;;;;;;5072031;28;20230;-78
2021/05/07 09:43:08;;;;;;;5.20;4.70;;;9.70;85.20;;;;;;5070360;28;20203;-78
2021/05/07 09:45:36;;;;;;;4.38;3.97;;;9.90;84.40;;;;;;5088437;28;20199;-78
2021/05/07 09:48:04;;;;;;;5.47;5.00;;;9.90;81.10;;;;;;5088562;28;20263;-78
2021/05/07 09:50:38;;;;;;;4.93;4.37;;;9.90;77.90;;;;;;5071848;28;20191;-78
2021/05/07 09:53:12;;;;;;;4.50;4.10;;;10.10;77.10;;;;;;5088652;28;20617;-78
2021/05/07 09:55:38;;;;;;;4.57;4.17;;;10.30;74.70;;;;;;5087336;28;20631;-79
2021/05/07 09:58:05;;;;;;;5.80;4.60;;;10.10;72.60;;;;;;5089481;28;21222;-79
2021/05/07 10:00:32;;;;;;;6.53;4.57;;;10.20;74.10;;;;;;5072555;28;20720;-79
2021/05/07 10:02:59;;;;;;;4.20;3.80;;;10.20;71.70;;;;;;5068008;28;20672;-79
2021/05/07 10:05:27;;;;;;;3.87;3.57;;;10.50;69.90;;;;;;5072772;28;20622;-79
2021/05/07 10:07:55;;;;;;;4.50;4.17;;;10.50;69.70;;;;;;5076262;28;20662;-78
2021/05/07 10:10:26;;;;;;;4.67;4.27;;;10.80;68.60;;;;;;5073520;28;20981;-79
2021/05/07 10:12:55;;;;;;;4.20;3.80;;;11.10;70.20;;;;;;5070226;28;20670;-79
2021/05/07 10:15:30;;;;;;;4.43;4.00;;;11.20;63.00;;;;;;5086925;28;20620;-78
2021/05/07 10:17:57;;;;;;;3.43;3.13;;;11.20;59.00;;;;;;5089631;28;20647;-79
2021/05/07 10:20:27;;;;;;;3.37;3.07;;;11.30;63.60;;;;;;5085940;28;20747;-78
2021/05/07 10:22:54;;;;;;;6.20;3.40;;;11.50;64.50;;;;;;5090483;28;20608;-78
2021/05/07 10:25:23;;;;;;;3.60;3.30;;;11.40;64.70;;;;;;5072953;28;20632;-78
2021/05/07 10:27:52;;;;;;;6.10;4.67;;;11.30;60.70;;;;;;5073232;28;21094;-79
2021/05/07 10:30:32;;;;;;;4.23;3.27;;;11.70;59.20;;;;;;5075377;28;20682;-80
2021/05/07 10:33:02;;;;;;;3.93;3.53;;;11.90;59.80;;;;;;5089379;28;21260;-80
2021/05/07 10:35:35;;;;;;;4.20;3.90;;;12.10;59.50;;;;;;5053142;28;20725;-80
2021/05/07 10:38:16;;;;;;;6.10;3.57;;;11.90;57.30;;;;;;5084334;28;20667;-78
2021/05/07 10:40:43;;;;;;;3.73;3.43;;;11.20;57.00;;;;;;5068047;28;20754;-79
2021/05/07 10:43:10;;;;;;;3.77;3.47;;;11.00;59.00;;;;;;5072427;28;20713;-78
2021/05/07 10:45:43;;;;;;;4.23;3.80;;;11.00;59.10;;;;;;5068526;28;20626;-78
2021/05/07 10:48:19;;;;;;;4.50;4.10;;;10.60;56.60;;;;;;5089018;28;21303;-78
2021/05/07 10:50:49;;;;;;;3.83;3.50;;;10.30;58.20;;;;;;5090816;28;21373;-78
2021/05/07 10:53:41;;;;;;;4.40;4.00;;;10.40;56.30;;;;;;5087148;28;20686;-78
2021/05/07 10:56:17;;;;;;;4.27;3.47;;;10.90;56.50;;;;;;5074984;28;20679;-78
2021/05/07 10:58:43;;;;;;;4.40;2.93;;;11.00;58.40;;;;;;5086051;28;20623;-79
2021/05/07 11:01:25;;;;;;;3.10;2.80;;;11.40;58.70;;;;;;5077099;28;20610;-79
2021/05/07 11:04:03;;;;;;;4.00;3.70;;;11.20;58.40;;;;;;5082205;28;21216;-78
2021/05/07 11:06:32;;;;;;;3.03;2.83;;;11.20;57.40;;;;;;5090150;28;20612;-79
2021/05/07 11:08:59;;;;;;;4.20;3.90;;;11.50;58.70;;;;;;5076405;28;20613;-78
2021/05/07 11:11:33;;;;;;;3.40;3.10;;;11.60;56.60;;;;;;5079390;28;20626;-78
2021/05/07 11:13:59;;;;;;;3.50;3.20;;;12.00;57.80;;;;;;5080940;28;20628;-79
2021/05/07 11:16:36;;;;;;;5.67;3.70;;;12.40;56.50;;;;;;5074097;28;20621;-78
2021/05/07 11:19:03;;;;;;;5.10;3.30;;;12.80;55.70;;;;;;5079201;28;20605;-78
2021/05/07 11:21:31;;;;;;;4.20;3.70;;;12.90;55.30;;;;;;5077522;28;20625;-79
2021/05/07 11:23:57;;;;;;;5.50;3.37;;;12.80;53.90;;;;;;5067816;28;20626;-80
2021/05/07 11:26:39;;;;;;;4.10;3.80;;;12.80;53.60;;;;;;5069280;28;20603;-80
2021/05/07 11:29:06;;;;;;;4.80;4.30;;;12.40;53.10;;;;;;5066986;28;20615;-78
2021/05/07 11:31:33;;;;;;;3.97;3.67;;;12.30;53.80;;;;;;5081132;28;20637;-79
2021/05/07 11:34:00;;;;;;;4.67;3.50;;;12.50;54.30;;;;;;5074677;28;20658;-79
2021/05/07 11:36:28;;;;;;;4.30;4.00;;;13.40;54.00;;;;;;5086739;28;20718;-80
2021/05/07 11:38:58;;;;;;;3.30;3.10;;;13.90;53.70;;;;;;5083366;28;20628;-79
2021/05/07 11:41:26;;;;;;;4.20;3.70;;;15.30;51.30;;;;;;5089538;28;20625;-78
2021/05/07 11:43:54;;;;;;;3.83;2.97;;;15.10;50.00;;;;;;5080669;28;20624;-79
2021/05/07 11:46:21;;;;;;;3.50;3.20;;;16.30;51.90;;;;;;5070030;28;20695;-79
2021/05/07 11:48:49;;;;;;;3.60;3.40;;;17.20;46.90;;;;;;5071115;28;21605;-79
2021/05/07 11:51:15;;;;;;;4.67;4.27;;;17.20;45.00;;;;;;5067490;28;20623;-79
2021/05/07 11:53:43;;;;;;;3.60;3.30;;;16.80;44.00;;;;;;5083800;28;20644;-79
2021/05/07 11:56:21;;;;;;;3.73;3.43;;;15.80;44.90;;;;;;5083640;28;20630;-79
2021/05/07 11:58:50;;;;;;;3.90;3.50;;;15.10;44.40;;;;;;5087064;28;21077;-79
2021/05/07 12:01:17;;;;;;;5.00;3.40;;;14.40;46.90;;;;;;5084748;28;20632;-79
2021/05/07 12:03:45;;;;;;;3.70;3.40;;;14.80;47.60;;;;;;5084890;28;20614;-79
2021/05/07 12:06:19;;;;;;;3.93;3.63;;;16.20;46.00;;;;;;5087792;28;20624;-79
2021/05/07 12:08:46;;;;;;;3.90;3.53;;;19.20;42.10;;;;;;5086868;28;20695;-79
2021/05/07 12:11:14;;;;;;;3.00;2.80;;;17.90;41.60;;;;;;5091237;28;20616;-79
2021/05/07 12:13:42;;;;;;;4.20;3.40;;;17.20;44.10;;;;;;5081130;28;21211;-79
2021/05/07 12:16:09;;;;;;;3.10;2.90;;;16.20;43.30;;;;;;5080728;28;20674;-78
2021/05/07 12:18:38;;;;;;;3.00;2.80;;;15.60;45.40;;;;;;5053066;28;20623;-78
2021/05/07 12:21:08;;;;;;;3.10;2.80;;;15.10;45.00;;;;;;5049770;28;20626;-79
2021/05/07 12:23:43;;;;;;;3.20;3.00;;;14.20;44.90;;;;;;5065624;28;20736;-79
2021/05/07 12:26:09;;;;;;;3.83;3.53;;;13.50;47.00;;;;;;5073536;28;20663;-79
2021/05/07 12:28:37;;;;;;;4.40;3.30;;;12.50;45.80;;;;;;5085453;28;21007;-79
2021/05/07 12:31:05;;;;;;;4.70;3.20;;;12.00;47.50;;;;;;5076957;28;20630;-78
2021/05/07 12:33:31;;;;;;;3.10;2.80;;;11.70;47.30;;;;;;5079008;28;21020;-78
2021/05/07 12:36:00;;;;;;;2.87;2.60;;;11.50;47.80;;;;;;5090533;28;20656;-78
2021/05/07 12:38:33;;;;;;;3.70;3.40;;;11.20;48.20;;;;;;5071540;28;20617;-78
2021/05/07 12:41:01;;;;;;;3.20;2.90;;;11.00;49.70;;;;;;5070128;28;20627;-78
2021/05/07 12:43:33;;;;;;;3.13;2.93;;;10.90;50.90;;;;;;5089492;28;20628;-79
2021/05/07 12:46:00;;;;;;;3.60;3.30;;;10.80;52.00;;;;;;5090726;28;20613;-78
2021/05/07 12:48:28;;;;;;;3.67;3.30;;;11.10;52.00;;;;;;5076460;28;20695;-79
2021/05/07 12:50:55;;;;;;;3.70;3.37;;;14.50;50.20;;;;;;5070969;28;21165;-78
2021/05/07 12:53:23;;;;;;;4.13;2.40;;;17.10;44.90;;;;;;5073164;28;20605;-78
2021/05/07 12:55:50;;;;;;;2.90;2.70;;;18.90;40.70;;;;;;5086495;28;20645;-78
2021/05/07 12:58:17;;;;;;;2.97;2.77;;;22.50;39.20;;;;;;5078239;28;21012;-79
2021/05/07 13:00:44;;;;;;;3.10;2.83;;;23.50;37.10;;;;;;5086630;28;20619;-78
2021/05/07 13:03:11;;;;;;;3.97;3.57;;;23.30;34.30;;;;;;5071372;28;20631;-79